Time;durP1;ratioP1;P1;durP2;ratioP2;P2;SDS_P1;SDS_P2;PMS_P1;PMS_P2;Temp;Humidity;BMP_temperature;BMP_pressure;BME280_temperature;BME280_humidity;BME280_pressure;Samples;Min_cycle;Max_cycle;Signal;HPM_P1;HPM_P2
2021/05/13 00:01:32;;;;;;;4.83;2.50;;;13.60;99.90;;;;;;10537294;28;20592;-84
2021/05/13 00:06:34;;;;;;;3.20;2.90;;;13.60;99.90;;;;;;10537232;28;20200;-84
2021/05/13 00:11:42;;;;;;;3.50;2.90;;;13.60;99.90;;;;;;10531998;28;20223;-83
2021/05/13 00:16:48;;;;;;;2.50;2.30;;;13.50;99.90;;;;;;10540230;28;20200;-82
2021/05/13 00:21:53;;;;;;;3.80;3.30;;;13.50;99.90;;;;;;10518613;28;20255;-82
2021/05/13 00:27:01;;;;;;;3.47;2.87;;;13.50;99.90;;;;;;10538819;28;20660;-84
2021/05/13 00:32:07;;;;;;;5.27;2.63;;;13.50;99.90;;;;;;10530371;28;20266;-84
2021/05/13 00:37:14;;;;;;;2.83;2.63;;;13.50;99.90;;;;;;10498399;28;20223;-83
2021/05/13 00:42:16;;;;;;;3.53;2.50;;;13.50;99.90;;;;;;10527723;28;20220;-83
2021/05/13 00:47:19;;;;;;;4.20;2.60;;;13.50;99.90;;;;;;10522242;28;20283;-82
2021/05/13 00:52:22;;;;;;;2.93;2.63;;;13.50;99.90;;;;;;10523588;28;20200;-82
2021/05/13 00:57:26;;;;;;;2.60;2.43;;;13.40;99.90;;;;;;10518733;28;20229;-83
2021/05/13 01:02:29;;;;;;;5.63;2.80;;;13.40;99.90;;;;;;10531320;28;20227;-82
2021/05/13 01:07:31;;;;;;;3.33;3.03;;;13.40;99.90;;;;;;10509462;28;20203;-82
2021/05/13 01:12:33;;;;;;;4.50;2.50;;;13.40;99.90;;;;;;10540994;28;20615;-83
2021/05/13 01:17:41;;;;;;;3.63;2.70;;;13.40;99.90;;;;;;10524459;28;20238;-82
2021/05/13 01:22:43;;;;;;;3.70;2.93;;;13.40;99.90;;;;;;10528108;28;20306;-82
2021/05/13 01:27:45;;;;;;;3.10;2.80;;;13.40;99.90;;;;;;10512357;28;20714;-83
2021/05/13 01:32:46;;;;;;;6.13;3.33;;;13.40;99.90;;;;;;10536050;28;20219;-83
2021/05/13 01:37:59;;;;;;;3.50;3.20;;;13.40;99.90;;;;;;10549136;28;20726;-83
2021/05/13 01:43:02;;;;;;;6.13;3.30;;;13.40;99.90;;;;;;10524408;28;20696;-82
2021/05/13 01:48:04;;;;;;;4.03;3.70;;;13.30;99.90;;;;;;10514045;28;20234;-82
2021/05/13 01:53:08;;;;;;;3.77;3.43;;;13.30;99.90;;;;;;10538743;28;20199;-81
2021/05/13 01:58:10;;;;;;;4.07;3.67;;;13.20;99.90;;;;;;10522719;28;20700;-82
2021/05/13 02:03:12;;;;;;;6.20;3.90;;;13.20;99.90;;;;;;10512592;28;20226;-82
2021/05/13 02:08:14;;;;;;;4.27;3.70;;;13.20;99.90;;;;;;10515879;28;20292;-82
2021/05/13 02:13:16;;;;;;;5.27;3.80;;;13.20;99.90;;;;;;10507713;28;20212;-82
2021/05/13 02:18:20;;;;;;;4.20;3.80;;;13.20;99.90;;;;;;10513417;28;20710;-82
2021/05/13 02:23:22;;;;;;;4.27;3.97;;;13.10;99.90;;;;;;10540916;28;20220;-82
2021/05/13 02:28:24;;;;;;;7.20;3.60;;;13.10;99.90;;;;;;10541779;28;20250;-83
2021/05/13 02:33:26;;;;;;;5.73;3.50;;;13.00;99.90;;;;;;10531174;28;20212;-82
2021/05/13 02:38:28;;;;;;;3.57;3.27;;;13.00;99.90;;;;;;10541508;28;20708;-82
2021/05/13 02:43:30;;;;;;;3.47;3.20;;;13.00;99.90;;;;;;10547647;28;20224;-82
2021/05/13 02:48:32;;;;;;;3.90;3.47;;;13.00;99.90;;;;;;10525727;28;20239;-82
2021/05/13 02:53:34;;;;;;;7.27;3.90;;;12.90;99.90;;;;;;10546466;28;20249;-82
2021/05/13 02:58:36;;;;;;;4.83;3.67;;;12.90;99.90;;;;;;10514150;28;20231;-83
2021/05/13 03:03:38;;;;;;;3.60;3.30;;;13.00;99.90;;;;;;10526690;28;20283;-82
2021/05/13 03:08:41;;;;;;;4.10;3.70;;;13.00;99.90;;;;;;10518685;28;20615;-83
2021/05/13 03:13:44;;;;;;;5.03;4.07;;;13.10;99.90;;;;;;10531254;28;20196;-83
2021/05/13 03:18:50;;;;;;;4.80;3.67;;;13.10;99.90;;;;;;10490267;28;20231;-83
2021/05/13 03:23:56;;;;;;;5.40;4.57;;;13.20;99.90;;;;;;10513604;28;20234;-83
2021/05/13 03:28:58;;;;;;;4.33;4.03;;;13.20;99.90;;;;;;10527281;28;20250;-82
2021/05/13 03:34:00;;;;;;;5.63;3.53;;;13.20;99.90;;;;;;10515003;28;20196;-83
2021/05/13 03:39:05;;;;;;;5.03;4.47;;;13.20;99.90;;;;;;10533586;28;20228;-81
2021/05/13 03:44:07;;;;;;;4.30;3.90;;;13.20;99.90;;;;;;10510590;28;20260;-83
2021/05/13 03:49:08;;;;;;;4.27;3.90;;;13.20;99.90;;;;;;10545115;28;20227;-82
2021/05/13 03:54:11;;;;;;;4.13;3.80;;;13.20;99.90;;;;;;10522048;28;20254;-82
2021/05/13 03:59:16;;;;;;;4.30;3.90;;;13.20;99.90;;;;;;10543034;28;20249;-83
2021/05/13 04:04:18;;;;;;;5.97;4.20;;;13.20;99.90;;;;;;10544552;28;20192;-82
2021/05/13 04:09:20;;;;;;;7.67;4.13;;;13.20;99.90;;;;;;10527857;28;20216;-83
2021/05/13 04:14:22;;;;;;;4.27;3.87;;;13.20;99.90;;;;;;10525959;28;20210;-84
2021/05/13 04:19:24;;;;;;;3.70;3.43;;;13.20;99.90;;;;;;10531617;28;20232;-83
2021/05/13 04:24:27;;;;;;;3.80;3.40;;;13.10;99.90;;;;;;10537824;28;20294;-84
2021/05/13 04:29:28;;;;;;;7.60;4.33;;;13.10;99.90;;;;;;10541686;28;20215;-83
2021/05/13 04:34:30;;;;;;;3.70;3.40;;;13.10;99.90;;;;;;10523330;28;20227;-83
2021/05/13 04:39:33;;;;;;;3.90;3.60;;;13.10;99.90;;;;;;10519501;28;20228;-82
2021/05/13 04:44:36;;;;;;;4.87;4.07;;;13.10;99.90;;;;;;10543317;28;20204;-83
2021/05/13 04:49:37;;;;;;;5.00;4.33;;;13.00;99.90;;;;;;10526445;28;20258;-82
2021/05/13 04:54:40;;;;;;;5.47;4.97;;;13.00;99.90;;;;;;10499693;28;20203;-83
2021/05/13 04:59:42;;;;;;;6.97;6.27;;;13.10;99.90;;;;;;10514373;28;20220;-82
2021/05/13 05:04:43;;;;;;;6.80;5.30;;;13.10;99.90;;;;;;10521629;28;20676;-82
2021/05/13 05:09:46;;;;;;;8.33;5.57;;;13.20;99.90;;;;;;10486355;28;20230;-84
2021/05/13 05:14:47;;;;;;;5.27;4.20;;;13.20;99.90;;;;;;10520502;28;20287;-83
2021/05/13 05:19:49;;;;;;;4.87;4.40;;;13.30;99.90;;;;;;10512540;28;20269;-82
2021/05/13 05:24:52;;;;;;;4.97;3.93;;;13.40;99.90;;;;;;10525968;28;20196;-85
2021/05/13 05:29:53;;;;;;;4.93;4.17;;;13.40;99.90;;;;;;10537781;28;20242;-84
2021/05/13 05:34:55;;;;;;;6.00;5.40;;;13.30;99.90;;;;;;10527363;28;20208;-85
2021/05/13 05:39:57;;;;;;;4.90;4.50;;;13.20;99.90;;;;;;10524741;28;20238;-83
2021/05/13 05:44:59;;;;;;;4.60;4.30;;;13.20;99.90;;;;;;10515421;28;20290;-83
2021/05/13 05:50:01;;;;;;;6.33;4.90;;;13.10;99.90;;;;;;10547484;28;20231;-83
2021/05/13 05:55:04;;;;;;;4.73;4.27;;;13.10;99.90;;;;;;10524061;28;20231;-84
2021/05/13 06:00:07;;;;;;;4.93;4.53;;;13.10;99.90;;;;;;10525066;28;20216;-83
2021/05/13 06:05:12;;;;;;;5.87;5.37;;;13.20;99.90;;;;;;10516457;28;20295;-82
2021/05/13 06:10:18;;;;;;;5.03;4.73;;;13.20;99.90;;;;;;10508777;28;20315;-84
2021/05/13 06:15:22;;;;;;;4.87;4.47;;;13.40;99.90;;;;;;10525073;28;20214;-84
2021/05/13 06:20:25;;;;;;;4.30;3.90;;;13.50;99.90;;;;;;10497128;28;20317;-82
2021/05/13 06:25:28;;;;;;;5.60;4.87;;;13.70;99.90;;;;;;10517652;28;20206;-83
2021/05/13 06:30:30;;;;;;;4.90;4.33;;;13.80;99.90;;;;;;10538197;28;20281;-83
2021/05/13 06:35:34;;;;;;;4.73;3.80;;;13.90;99.90;;;;;;10546886;28;20203;-83
2021/05/13 06:40:37;;;;;;;4.60;4.00;;;14.10;99.90;;;;;;10529106;28;20231;-83
2021/05/13 06:45:39;;;;;;;4.37;3.97;;;14.20;99.90;;;;;;10545876;28;20204;-82
2021/05/13 06:50:40;;;;;;;4.23;3.70;;;14.30;99.90;;;;;;10524002;28;20236;-83
2021/05/13 06:55:43;;;;;;;3.97;3.67;;;14.50;99.90;;;;;;10514686;28;20204;-83
2021/05/13 07:00:45;;;;;;;3.73;3.43;;;14.70;99.90;;;;;;10523643;28;20718;-83
2021/05/13 07:05:46;;;;;;;3.10;2.80;;;14.80;99.90;;;;;;10542263;28;20755;-83
2021/05/13 07:10:49;;;;;;;2.97;2.50;;;14.90;99.90;;;;;;10507384;28;20246;-82
2021/05/13 07:15:51;;;;;;;2.70;2.50;;;15.20;99.90;;;;;;10529696;28;20208;-84
2021/05/13 07:20:53;;;;;;;2.40;2.20;;;15.50;99.90;;;;;;10530070;28;20234;-84
2021/05/13 07:25:58;;;;;;;2.50;2.30;;;15.80;99.90;;;;;;10500528;28;20270;-83
2021/05/13 07:30:59;;;;;;;3.13;2.80;;;16.30;99.90;;;;;;10504504;28;20220;-84
2021/05/13 07:36:01;;;;;;;3.90;2.60;;;16.60;99.90;;;;;;10501827;28;20204;-83
2021/05/13 07:41:06;;;;;;;2.47;2.33;;;17.00;99.90;;;;;;10522458;28;20606;-83
2021/05/13 07:46:08;;;;;;;2.70;2.60;;;17.40;99.90;;;;;;10531051;28;20207;-84
2021/05/13 07:51:11;;;;;;;3.67;3.03;;;17.80;99.40;;;;;;10523435;28;20231;-84
2021/05/13 07:56:15;;;;;;;5.80;3.70;;;18.30;97.40;;;;;;10527712;28;20199;-84
2021/05/13 08:01:18;;;;;;;2.40;2.27;;;18.80;97.20;;;;;;10500475;28;20220;-84
2021/05/13 08:06:20;;;;;;;2.40;2.20;;;19.30;96.30;;;;;;10514955;28;20215;-85
2021/05/13 08:11:23;;;;;;;2.53;2.33;;;19.80;95.30;;;;;;10533680;28;20239;-85
2021/05/13 08:16:25;;;;;;;2.13;2.03;;;20.40;92.00;;;;;;10524141;28;20461;-85
2021/05/13 08:21:27;;;;;;;3.77;2.17;;;20.90;91.80;;;;;;10520637;28;20598;-85
2021/05/13 08:26:30;;;;;;;2.80;2.60;;;21.30;87.20;;;;;;10525314;28;20239;-85
2021/05/13 08:31:31;;;;;;;2.90;2.60;;;21.90;78.80;;;;;;10533183;28;20231;-85
2021/05/13 08:36:35;;;;;;;2.80;2.40;;;22.30;78.80;;;;;;10527241;28;20203;-85
2021/05/13 08:41:42;;;;;;;2.23;2.13;;;22.80;74.20;;;;;;10547486;28;20281;-83
2021/05/13 08:46:49;;;;;;;2.30;2.13;;;23.20;73.30;;;;;;10505678;28;20590;-84
2021/05/13 08:51:58;;;;;;;2.43;2.23;;;23.50;71.50;;;;;;10532472;28;20747;-83
2021/05/13 08:57:04;;;;;;;3.53;2.50;;;23.20;69.40;;;;;;10504376;28;20200;-84
2021/05/13 09:02:09;;;;;;;2.57;2.37;;;22.40;71.30;;;;;;10516645;28;20216;-85
2021/05/13 09:07:15;;;;;;;2.60;2.20;;;21.60;71.90;;;;;;10504128;28;20208;-85
2021/05/13 09:12:20;;;;;;;2.10;2.00;;;21.00;73.70;;;;;;10494988;28;20252;-85
2021/05/13 09:17:25;;;;;;;2.60;1.93;;;20.70;72.30;;;;;;10487901;28;20241;-83
2021/05/13 09:22:29;;;;;;;3.40;2.50;;;21.00;72.80;;;;;;10498013;28;20215;-85
2021/05/13 09:27:34;;;;;;;2.23;2.10;;;21.40;71.00;;;;;;10493995;28;20250;-84
2021/05/13 09:32:36;;;;;;;2.37;2.10;;;21.60;70.30;;;;;;10511915;28;20223;-84
2021/05/13 09:37:46;;;;;;;2.13;2.00;;;21.40;69.40;;;;;;10515693;28;20280;-85
2021/05/13 09:42:49;;;;;;;2.80;2.60;;;20.90;70.70;;;;;;10538711;28;20210;-85
2021/05/13 09:52:53;;;;;;;3.57;2.47;;;20.00;69.60;;;;;;10442653;28;20212;-77
2021/05/13 09:58:02;;;;;;;2.50;2.33;;;19.60;75.10;;;;;;10433892;28;20197;-77
2021/05/13 10:03:07;;;;;;;2.30;2.20;;;19.30;72.40;;;;;;10452598;28;20197;-77
2021/05/13 10:08:08;;;;;;;2.60;2.40;;;19.00;76.70;;;;;;10433848;28;20221;-77
2021/05/13 10:13:13;;;;;;;2.47;2.27;;;19.00;74.50;;;;;;10434028;28;20270;-77
2021/05/13 10:18:23;;;;;;;3.00;2.80;;;19.30;79.20;;;;;;10417004;28;20343;-77
2021/05/13 10:23:25;;;;;;;2.40;2.30;;;19.50;74.30;;;;;;10449575;28;20197;-77
2021/05/13 10:28:30;;;;;;;2.40;2.20;;;19.50;72.50;;;;;;10433231;28;20328;-77
2021/05/13 10:33:47;;;;;;;2.00;1.77;;;19.50;76.40;;;;;;10454793;28;20664;-77
2021/05/13 10:38:51;;;;;;;2.50;1.60;;;19.50;73.20;;;;;;10451603;28;20220;-77
2021/05/13 10:43:54;;;;;;;3.43;1.80;;;19.50;72.30;;;;;;10457822;28;20270;-77
2021/05/13 10:49:13;;;;;;;1.70;1.60;;;19.60;71.70;;;;;;10457494;28;20233;-77
2021/05/13 10:54:45;;;;;;;2.10;1.93;;;19.70;74.80;;;;;;10439815;28;20221;-77
2021/05/13 11:00:28;;;;;;;1.90;1.80;;;19.70;74.50;;;;;;10457974;28;20228;-77
2021/05/13 11:05:41;;;;;;;2.10;1.90;;;19.80;75.10;;;;;;10339609;28;20212;-77
2021/05/13 11:10:57;;;;;;;2.20;2.00;;;19.80;73.90;;;;;;10456387;28;20245;-77
2021/05/13 11:15:59;;;;;;;5.23;3.80;;;19.60;75.00;;;;;;10457017;28;20204;-77
2021/05/13 11:21:01;;;;;;;3.63;1.87;;;19.50;74.80;;;;;;10456283;28;20583;-77
2021/05/13 11:26:06;;;;;;;2.80;1.97;;;19.50;74.90;;;;;;10421334;28;20205;-76
2021/05/13 11:31:18;;;;;;;2.63;2.03;;;19.80;77.10;;;;;;10456260;28;20615;-77
2021/05/13 11:36:23;;;;;;;2.10;1.70;;;20.10;74.90;;;;;;10438364;28;20288;-77
2021/05/13 11:41:25;;;;;;;1.60;1.50;;;20.10;73.60;;;;;;10456191;28;20217;-77
2021/05/13 11:46:28;;;;;;;1.70;1.57;;;19.90;69.60;;;;;;10437901;28;20263;-77
2021/05/13 11:51:31;;;;;;;3.53;1.60;;;19.70;69.10;;;;;;10444760;28;20714;-77
2021/05/13 11:56:34;;;;;;;2.20;2.00;;;19.50;69.90;;;;;;10426556;28;20271;-77
2021/05/13 12:01:38;;;;;;;3.57;2.03;;;19.40;67.10;;;;;;10448281;28;20261;-77
2021/05/13 12:06:51;;;;;;;1.70;1.53;;;19.20;70.90;;;;;;10446610;28;20263;-77
2021/05/13 12:11:54;;;;;;;1.47;1.37;;;19.10;69.70;;;;;;10429488;28;20259;-77
2021/05/13 12:16:57;;;;;;;1.60;1.50;;;19.00;68.20;;;;;;10427869;28;20208;-77
2021/05/13 12:22:01;;;;;;;1.30;1.00;;;18.90;72.90;;;;;;10446228;28;20292;-77
2021/05/13 12:27:03;;;;;;;1.60;1.50;;;19.00;72.90;;;;;;10454000;28;20628;-77
2021/05/13 12:32:06;;;;;;;3.33;1.70;;;19.30;69.90;;;;;;10440288;28;20229;-77
2021/05/13 12:37:21;;;;;;;1.20;1.10;;;19.50;71.40;;;;;;10422731;28;20229;-77
2021/05/13 12:42:24;;;;;;;1.80;1.40;;;19.70;66.80;;;;;;10417215;28;20233;-77
2021/05/13 12:47:26;;;;;;;1.20;1.10;;;19.80;64.20;;;;;;10432521;28;20201;-77
2021/05/13 12:52:28;;;;;;;1.30;1.20;;;19.90;67.30;;;;;;10432451;28;20688;-77
2021/05/13 12:57:39;;;;;;;1.43;1.30;;;20.00;68.40;;;;;;10414556;28;20206;-77
2021/05/13 13:02:42;;;;;;;2.10;1.53;;;19.90;67.60;;;;;;10423745;28;20221;-77
2021/05/13 13:07:45;;;;;;;1.30;1.20;;;19.70;62.70;;;;;;10425806;28;20236;-77
2021/05/13 13:12:46;;;;;;;1.53;1.43;;;19.40;62.50;;;;;;10414941;28;20255;-77
2021/05/13 13:18:01;;;;;;;1.30;1.20;;;19.40;65.30;;;;;;10421006;28;20280;-77
2021/05/13 13:23:16;;;;;;;1.73;1.17;;;19.30;62.70;;;;;;10439236;28;20197;-76
2021/05/13 13:28:18;;;;;;;1.40;1.30;;;19.40;65.30;;;;;;10440146;28;20307;-76
2021/05/13 13:33:22;;;;;;;1.60;1.50;;;19.50;65.00;;;;;;10436468;28;20299;-76
2021/05/13 13:38:25;;;;;;;2.10;1.60;;;19.50;64.40;;;;;;10425405;28;20298;-76
2021/05/13 13:43:28;;;;;;;1.87;1.40;;;19.40;64.20;;;;;;10427299;28;20544;-77
2021/05/13 13:48:31;;;;;;;1.37;1.27;;;19.40;67.10;;;;;;10434698;28;20242;-76
2021/05/13 13:53:32;;;;;;;1.43;1.20;;;19.40;66.30;;;;;;10429522;28;20574;-76
2021/05/13 13:58:34;;;;;;;2.00;1.40;;;19.30;69.20;;;;;;10427156;28;20754;-76
2021/05/13 14:03:37;;;;;;;1.87;1.30;;;19.10;70.50;;;;;;10428544;28;20233;-76
2021/05/13 14:08:38;;;;;;;1.40;1.23;;;18.70;72.10;;;;;;10439062;28;20218;-77
2021/05/13 14:13:40;;;;;;;1.30;1.20;;;18.60;71.70;;;;;;10446293;28;20245;-77
2021/05/13 14:18:42;;;;;;;1.40;1.30;;;18.60;71.30;;;;;;10449498;28;20225;-76
2021/05/13 14:23:44;;;;;;;1.00;1.00;;;18.80;66.60;;;;;;10454726;28;20197;-77
2021/05/13 14:28:48;;;;;;;1.00;1.00;;;18.90;66.60;;;;;;10425334;28;20252;-76
2021/05/13 14:33:50;;;;;;;1.63;0.80;;;19.00;66.40;;;;;;10455961;28;20307;-76
2021/05/13 14:38:52;;;;;;;1.00;1.00;;;18.90;64.80;;;;;;10436151;28;20685;-76
2021/05/13 14:43:54;;;;;;;1.00;1.00;;;18.90;68.30;;;;;;10453128;28;20204;-76
2021/05/13 14:49:07;;;;;;;1.57;1.47;;;18.80;68.30;;;;;;10438924;28;20249;-76
2021/05/13 14:54:09;;;;;;;3.27;1.00;;;18.80;66.40;;;;;;10444493;28;20227;-76
2021/05/13 14:59:11;;;;;;;1.20;1.10;;;18.70;67.50;;;;;;10424414;28;20311;-77
2021/05/13 15:04:14;;;;;;;1.30;1.20;;;18.60;70.00;;;;;;10435890;28;20280;-77
2021/05/13 15:09:16;;;;;;;2.03;1.23;;;18.50;70.60;;;;;;10455032;28;20685;-77
2021/05/13 15:14:17;;;;;;;1.00;1.00;;;18.30;72.60;;;;;;10445156;28;20248;-76
2021/05/13 15:19:20;;;;;;;1.43;1.17;;;18.20;73.10;;;;;;10443603;28;20223;-77
2021/05/13 15:24:22;;;;;;;1.70;1.60;;;18.20;76.20;;;;;;10460048;28;20273;-77
2021/05/13 15:29:24;;;;;;;1.17;1.17;;;18.10;76.40;;;;;;10441993;28;20321;-77
2021/05/13 15:34:26;;;;;;;1.13;1.13;;;18.20;76.50;;;;;;10459609;28;20231;-76
2021/05/13 15:39:28;;;;;;;1.10;1.10;;;18.20;76.80;;;;;;10460882;28;20248;-77
2021/05/13 15:44:29;;;;;;;1.47;1.20;;;18.30;77.00;;;;;;10441084;28;20201;-76
2021/05/13 15:49:32;;;;;;;1.70;1.60;;;18.20;74.90;;;;;;10441460;28;20244;-76
2021/05/13 15:54:34;;;;;;;1.20;1.10;;;18.10;73.20;;;;;;10455069;28;20216;-76
2021/05/13 15:59:35;;;;;;;1.33;1.23;;;18.00;75.20;;;;;;10453707;28;20232;-76
2021/05/13 16:04:38;;;;;;;4.50;1.53;;;18.00;75.50;;;;;;10422871;28;20190;-76
2021/05/13 16:09:39;;;;;;;1.30;1.20;;;18.10;76.10;;;;;;10440909;28;20704;-76
2021/05/13 16:14:41;;;;;;;1.40;1.30;;;18.20;75.90;;;;;;10436113;28;20725;-76
2021/05/13 16:19:44;;;;;;;1.30;1.23;;;18.30;76.40;;;;;;10439881;28;20221;-76
2021/05/13 16:24:47;;;;;;;1.20;1.10;;;18.30;75.80;;;;;;10443076;28;20198;-76
2021/05/13 16:29:49;;;;;;;3.40;1.53;;;18.20;74.70;;;;;;10431155;28;20237;-76
2021/05/13 16:34:52;;;;;;;1.20;1.20;;;18.00;74.80;;;;;;10449072;28;20228;-76
2021/05/13 16:39:53;;;;;;;1.23;1.13;;;17.80;76.00;;;;;;10427398;28;20701;-76
2021/05/13 16:44:56;;;;;;;1.80;1.50;;;17.70;76.70;;;;;;10439140;28;20212;-76
2021/05/13 16:49:59;;;;;;;1.00;1.00;;;17.60;78.00;;;;;;10431333;28;20225;-76
2021/05/13 16:55:00;;;;;;;1.03;0.97;;;17.50;78.10;;;;;;10428353;28;20689;-76
2021/05/13 17:00:03;;;;;;;2.10;1.30;;;17.40;79.10;;;;;;10420195;28;20709;-77
2021/05/13 17:05:10;;;;;;;1.30;1.20;;;17.40;79.20;;;;;;10414194;28;20276;-76
2021/05/13 17:10:13;;;;;;;1.10;1.10;;;17.30;78.70;;;;;;10433800;28;20229;-76
2021/05/13 17:15:15;;;;;;;1.00;1.00;;;17.30;74.50;;;;;;10442378;28;20580;-76
2021/05/13 17:20:18;;;;;;;1.00;1.00;;;17.10;78.00;;;;;;10425385;28;20229;-76
2021/05/13 17:25:20;;;;;;;0.90;0.90;;;17.00;76.60;;;;;;10451861;28;20204;-76
2021/05/13 17:30:24;;;;;;;1.07;0.97;;;17.00;76.10;;;;;;10425435;28;20224;-76
2021/05/13 17:35:27;;;;;;;0.90;0.90;;;16.90;78.30;;;;;;10431298;28;20201;-76
2021/05/13 17:40:28;;;;;;;1.00;1.00;;;16.90;77.70;;;;;;10413070;28;20217;-76
2021/05/13 17:45:30;;;;;;;0.90;0.90;;;16.90;77.10;;;;;;10453171;28;20201;-76
2021/05/13 17:50:33;;;;;;;0.90;0.90;;;16.80;77.00;;;;;;10435772;28;20236;-76
2021/05/13 17:55:35;;;;;;;0.80;0.80;;;16.70;76.90;;;;;;10460183;28;20230;-76
2021/05/13 18:00:41;;;;;;;0.80;0.80;;;16.70;76.40;;;;;;10460015;28;20217;-76
2021/05/13 18:05:44;;;;;;;1.10;1.00;;;16.60;75.50;;;;;;10392308;28;20292;-76
2021/05/13 18:10:48;;;;;;;0.93;0.93;;;16.50;77.80;;;;;;10439694;28;20563;-76
2021/05/13 18:15:50;;;;;;;1.10;1.00;;;16.50;75.70;;;;;;10445684;28;20212;-76
2021/05/13 18:20:59;;;;;;;0.90;0.90;;;16.40;75.70;;;;;;10452460;28;20220;-76
2021/05/13 18:26:01;;;;;;;1.20;1.03;;;16.30;77.00;;;;;;10452412;28;20713;-76
2021/05/13 18:31:04;;;;;;;1.30;1.20;;;16.30;76.30;;;;;;10458258;28;20225;-76
2021/05/13 18:36:08;;;;;;;1.60;1.50;;;16.20;76.80;;;;;;10445102;28;20721;-77
2021/05/13 18:41:13;;;;;;;1.00;1.00;;;16.20;79.10;;;;;;10458210;28;20589;-77
2021/05/13 18:46:16;;;;;;;1.20;1.10;;;16.20;77.90;;;;;;10452127;28;20201;-76
2021/05/13 18:51:19;;;;;;;1.30;1.20;;;16.10;79.90;;;;;;10427528;28;20694;-77
2021/05/13 18:56:25;;;;;;;0.90;0.90;;;16.10;77.80;;;;;;10457851;28;20280;-77
2021/05/13 19:01:26;;;;;;;1.73;1.40;;;16.00;79.20;;;;;;10443525;28;20217;-76
2021/05/13 19:06:29;;;;;;;0.70;0.70;;;16.00;77.60;;;;;;10433467;28;20204;-77
2021/05/13 19:11:31;;;;;;;1.10;1.00;;;15.80;77.80;;;;;;10457197;28;20331;-77
2021/05/13 19:16:36;;;;;;;1.00;1.00;;;15.70;79.20;;;;;;10450195;28;20237;-77
2021/05/13 19:21:38;;;;;;;2.13;1.00;;;15.70;78.10;;;;;;10457910;28;20229;-77
2021/05/13 19:26:43;;;;;;;1.03;1.03;;;15.60;78.50;;;;;;10457243;28;20197;-77
2021/05/13 19:31:58;;;;;;;1.57;1.00;;;15.60;79.10;;;;;;10457207;28;20658;-76
2021/05/13 19:37:01;;;;;;;1.00;1.00;;;15.50;81.10;;;;;;10456227;28;20200;-76
2021/05/13 19:42:02;;;;;;;1.07;1.00;;;15.50;80.40;;;;;;10456703;28;20302;-76
2021/05/13 19:47:04;;;;;;;0.80;0.80;;;15.50;79.90;;;;;;10455819;28;20208;-76
2021/05/13 19:52:07;;;;;;;1.17;1.17;;;15.50;81.10;;;;;;10455442;28;20315;-76
2021/05/13 19:57:09;;;;;;;1.50;1.40;;;15.40;82.00;;;;;;10451086;28;20208;-76
2021/05/13 20:02:15;;;;;;;1.50;1.40;;;15.40;81.90;;;;;;10455048;28;20673;-76
2021/05/13 20:07:22;;;;;;;1.87;1.10;;;15.40;82.80;;;;;;10454693;28;20665;-76
2021/05/13 20:12:23;;;;;;;1.73;1.03;;;15.40;81.20;;;;;;10456337;28;20213;-76
2021/05/13 20:17:25;;;;;;;1.03;0.93;;;15.30;80.60;;;;;;10467680;28;20189;-76
2021/05/13 20:22:32;;;;;;;2.90;1.10;;;15.20;81.80;;;;;;10454814;28;20217;-76
2021/05/13 20:27:43;;;;;;;1.10;1.10;;;15.20;83.10;;;;;;10454098;28;20193;-76
2021/05/13 20:32:46;;;;;;;1.10;1.00;;;15.20;84.10;;;;;;10436209;28;20217;-76
2021/05/13 20:37:49;;;;;;;1.43;1.33;;;15.20;83.20;;;;;;10454105;28;20247;-76
2021/05/13 20:42:52;;;;;;;0.90;0.90;;;15.20;82.40;;;;;;10437519;28;20204;-76
2021/05/13 20:47:56;;;;;;;1.13;1.03;;;15.20;81.00;;;;;;10452881;28;20258;-76
2021/05/13 20:58:42;;;;;;;1.43;1.37;;;15.10;80.90;;;;;;10411029;28;20228;-76
2021/05/13 21:03:44;;;;;;;1.00;0.90;;;15.10;81.60;;;;;;10452443;28;20200;-76
2021/05/13 21:08:52;;;;;;;1.30;1.20;;;15.00;81.90;;;;;;10452212;28;20564;-76
2021/05/13 21:24:47;;;;;;;1.30;1.20;;;15.00;81.20;;;;;;10436144;28;20284;-76
2021/05/13 21:29:52;;;;;;;1.30;1.20;;;15.00;82.40;;;;;;10452842;28;20228;-76
2021/05/13 21:34:54;;;;;;;1.00;1.00;;;14.90;83.80;;;;;;10452433;28;20620;-76
2021/05/13 21:39:58;;;;;;;1.80;1.70;;;14.90;82.10;;;;;;10451916;28;20718;-76
2021/05/13 21:45:03;;;;;;;1.30;1.20;;;15.00;82.60;;;;;;10451672;28;20236;-76
2021/05/13 21:50:07;;;;;;;1.20;1.20;;;15.00;81.80;;;;;;10500582;22;20224;-77
2021/05/13 21:55:12;;;;;;;1.73;1.50;;;14.90;82.70;;;;;;10494942;28;20228;-78
2021/05/13 22:00:16;;;;;;;0.90;0.90;;;14.90;81.90;;;;;;10477234;28;20303;-77
2021/05/13 22:05:18;;;;;;;1.27;1.17;;;14.90;81.30;;;;;;10477733;28;20255;-78
2021/05/13 22:10:21;;;;;;;1.40;1.30;;;14.80;81.20;;;;;;10496177;28;20277;-77
2021/05/13 22:15:22;;;;;;;1.20;1.20;;;14.80;80.80;;;;;;10460982;28;20231;-78
2021/05/13 22:20:24;;;;;;;1.20;1.10;;;14.60;81.30;;;;;;10477861;28;20259;-77
2021/05/13 22:25:28;;;;;;;1.20;1.10;;;14.50;81.90;;;;;;10496213;28;20286;-78
2021/05/13 22:30:32;;;;;;;1.40;1.30;;;14.40;81.80;;;;;;10483038;28;20224;-78
2021/05/13 22:35:33;;;;;;;4.10;1.33;;;14.30;81.80;;;;;;10485398;28;20291;-78
2021/05/13 22:40:36;;;;;;;1.00;1.00;;;14.30;82.70;;;;;;10503962;28;20303;-77
2021/05/13 22:45:38;;;;;;;1.37;1.27;;;14.20;82.50;;;;;;10489463;28;20200;-78
2021/05/13 22:50:40;;;;;;;1.27;1.20;;;14.20;82.00;;;;;;10483893;28;20228;-77
2021/05/13 22:55:48;;;;;;;1.10;1.10;;;14.00;82.50;;;;;;10500908;28;20254;-78
2021/05/13 23:00:50;;;;;;;2.40;1.50;;;13.90;83.70;;;;;;10482699;28;20220;-78
2021/05/13 23:05:51;;;;;;;2.00;1.20;;;13.80;82.90;;;;;;10511282;28;20192;-77
2021/05/13 23:10:54;;;;;;;1.40;1.30;;;13.80;83.50;;;;;;10477231;28;20285;-77
2021/05/13 23:15:57;;;;;;;1.73;1.63;;;13.70;83.90;;;;;;10495410;28;20224;-78
2021/05/13 23:20:59;;;;;;;1.90;1.80;;;13.70;83.70;;;;;;10480141;28;20250;-78
2021/05/13 23:26:01;;;;;;;1.70;1.60;;;13.60;82.80;;;;;;10480587;28;20239;-78
2021/05/13 23:31:03;;;;;;;1.60;1.50;;;13.60;82.80;;;;;;10498725;28;20266;-77
2021/05/13 23:36:05;;;;;;;2.30;1.77;;;13.60;82.50;;;;;;10499314;28;20258;-77
2021/05/13 23:41:09;;;;;;;1.70;1.60;;;13.50;83.70;;;;;;10480996;28;20231;-78
2021/05/13 23:46:10;;;;;;;1.87;1.70;;;13.60;82.50;;;;;;10504984;28;20199;-77
2021/05/13 23:51:12;;;;;;;1.90;1.80;;;13.50;83.30;;;;;;10481055;28;20252;-77
2021/05/13 23:56:14;;;;;;;1.70;1.60;;;13.60;83.10;;;;;;10499164;28;20200;-78
